createdAt,value
2019-04-06T00:00:49.434Z,6.97
2019-04-06T00:02:53.158Z,6.99
2019-04-06T00:04:56.936Z,7.02
2019-04-06T00:07:00.657Z,7.07
2019-04-06T00:09:06.398Z,7.09
2019-04-06T00:11:10.251Z,7.07
2019-04-06T00:13:13.973Z,7.09
2019-04-06T00:15:17.745Z,7.12
2019-04-06T00:17:21.466Z,7.14
2019-04-06T00:19:25.182Z,7.14
2019-04-06T00:21:28.892Z,7.18
2019-04-06T00:23:32.596Z,7.23
2019-04-06T00:25:44.297Z,7.29
2019-04-06T00:27:41.772Z,7.34
2019-04-06T00:29:45.583Z,7.36
2019-04-06T00:32:08.379Z,7.37
2019-04-06T00:34:12.237Z,7.38
2019-04-06T00:36:16.015Z,7.40
2019-04-06T00:38:19.743Z,7.42
2019-04-06T00:40:23.519Z,7.42
2019-04-06T00:42:27.318Z,7.41
2019-04-06T00:44:31.035Z,7.43
2019-04-06T00:46:34.761Z,7.43
2019-04-06T00:48:38.503Z,7.44
2019-04-06T00:50:42.286Z,7.42
2019-04-06T00:52:46.017Z,7.42
2019-04-06T00:54:49.702Z,7.43
2019-04-06T00:56:53.418Z,7.40
2019-04-06T00:58:57.167Z,7.38
2019-04-06T01:01:00.876Z,7.36
2019-04-06T01:03:04.688Z,7.36
2019-04-06T01:05:08.649Z,7.33
2019-04-06T01:07:12.367Z,7.31
2019-04-06T01:09:16.218Z,7.28
2019-04-06T01:11:20.001Z,7.26
2019-04-06T01:13:23.793Z,7.25
2019-04-06T01:15:27.504Z,7.26
2019-04-06T01:17:31.215Z,7.25
2019-04-06T01:19:34.926Z,7.25
2019-04-06T01:21:38.640Z,7.22
2019-04-06T01:23:42.357Z,7.20
2019-04-06T01:25:46.052Z,7.16
2019-04-06T01:27:49.773Z,7.11
2019-04-06T01:29:53.478Z,7.03
2019-04-06T01:31:57.207Z,6.98
2019-04-06T01:34:01.016Z,6.93
2019-04-06T01:36:04.861Z,6.90
2019-04-06T01:38:08.615Z,6.89
2019-04-06T01:40:12.478Z,6.91
2019-04-06T01:42:16.277Z,6.91
2019-04-06T01:44:20.010Z,6.88
2019-04-06T01:46:23.781Z,6.89
2019-04-06T01:48:27.490Z,6.88
2019-04-06T01:50:31.154Z,6.89
2019-04-06T01:52:34.873Z,6.89
2019-04-06T01:54:38.573Z,6.89
2019-04-06T01:56:42.286Z,6.89
2019-04-06T01:58:46.004Z,6.87
2019-04-06T02:01:53.905Z,6.88
2019-04-06T02:03:57.623Z,6.89
2019-04-06T02:06:01.533Z,6.89
2019-04-06T02:08:05.262Z,6.89
2019-04-06T02:10:09.232Z,6.87
2019-04-06T02:12:12.937Z,6.83
2019-04-06T02:14:16.660Z,6.79
2019-04-06T02:16:20.366Z,6.78
2019-04-06T02:18:24.078Z,6.73
2019-04-06T02:20:27.787Z,6.68
2019-04-06T02:22:31.495Z,6.65
2019-04-06T02:24:35.341Z,6.64
2019-04-06T02:26:38.991Z,6.65
2019-04-06T02:28:42.705Z,6.67
2019-04-06T02:31:06.573Z,6.67
2019-04-06T02:33:28.193Z,6.69
2019-04-06T02:36:03.215Z,6.69
2019-04-06T02:38:24.968Z,6.69
2019-04-06T02:40:39.880Z,6.70
2019-04-06T02:42:53.453Z,6.70
2019-04-06T02:44:57.245Z,6.71
2019-04-06T02:47:00.973Z,6.72
2019-04-06T02:49:04.810Z,6.71
2019-04-06T02:51:08.477Z,6.70
2019-04-06T02:53:12.259Z,6.65
2019-04-06T02:55:15.990Z,6.62
2019-04-06T02:57:19.867Z,6.57
2019-04-06T02:59:23.728Z,6.53
2019-04-06T03:01:27.586Z,6.49
2019-04-06T03:03:31.384Z,6.43
2019-04-06T03:05:35.387Z,6.38
2019-04-06T03:07:39.265Z,6.33
2019-04-06T03:09:43.047Z,6.29
2019-04-06T03:11:46.750Z,6.23
2019-04-06T03:13:50.643Z,6.18
2019-04-06T03:15:54.367Z,6.15
2019-04-06T03:17:58.057Z,6.11
2019-04-06T03:20:01.770Z,6.06
2019-04-06T03:22:05.551Z,6.01
2019-04-06T03:24:09.319Z,5.98
2019-04-06T03:26:13.064Z,5.94
2019-04-06T03:28:16.772Z,5.93
2019-04-06T03:30:20.560Z,5.93
2019-04-06T03:32:24.281Z,5.92
2019-04-06T03:34:28.139Z,5.89
2019-04-06T03:36:32.947Z,5.89
2019-04-06T03:38:36.631Z,5.89
2019-04-06T03:40:40.329Z,5.90
2019-04-06T03:42:44.041Z,5.88
2019-04-06T03:44:47.764Z,5.86
2019-04-06T03:46:52.503Z,5.85
2019-04-06T03:48:56.270Z,5.79
2019-04-06T03:50:59.925Z,5.77
2019-04-06T03:53:03.803Z,5.77
2019-04-06T03:55:08.460Z,5.78
2019-04-06T03:57:16.112Z,5.79
2019-04-06T03:59:17.591Z,5.85
2019-04-06T04:01:21.294Z,5.85
2019-04-06T04:03:25.135Z,5.86
2019-04-06T04:05:28.817Z,5.88
2019-04-06T04:07:32.613Z,5.89
2019-04-06T04:09:36.321Z,5.88
2019-04-06T04:11:40.110Z,5.91
2019-04-06T04:13:43.809Z,5.92
2019-04-06T04:15:47.610Z,5.93
2019-04-06T04:17:51.564Z,5.97
2019-04-06T04:19:55.309Z,5.99
2019-04-06T04:21:59.056Z,6.04
2019-04-06T04:24:03.002Z,6.08
2019-04-06T04:26:07.009Z,6.11
2019-04-06T04:28:10.715Z,6.12
2019-04-06T04:30:15.369Z,6.15
2019-04-06T04:32:19.506Z,6.17
2019-04-06T04:34:23.210Z,6.18
2019-04-06T04:36:26.944Z,6.16
2019-04-06T04:38:30.641Z,6.13
2019-04-06T04:40:34.518Z,6.05
2019-04-06T04:42:38.228Z,6.00
2019-04-06T04:44:41.941Z,5.93
2019-04-06T04:46:45.686Z,5.85
2019-04-06T04:48:49.515Z,5.76
2019-04-06T04:50:53.171Z,5.72
2019-04-06T04:52:56.881Z,5.68
2019-04-06T04:55:00.592Z,5.63
2019-04-06T04:57:04.320Z,5.58
2019-04-06T04:59:08.021Z,5.54
2019-04-06T05:01:11.800Z,5.51
2019-04-06T05:03:15.595Z,5.49
2019-04-06T05:05:19.380Z,5.45
2019-04-06T05:07:23.338Z,5.43
2019-04-06T05:09:27.048Z,5.44
2019-04-06T05:11:30.777Z,5.43
2019-04-06T05:13:34.509Z,5.38
2019-04-06T05:16:22.140Z,5.42
2019-04-06T05:18:25.860Z,5.43
2019-04-06T05:20:29.562Z,5.42
2019-04-06T05:22:33.275Z,5.41
2019-04-06T05:24:37.061Z,5.39
2019-04-06T05:26:40.775Z,5.34
2019-04-06T05:28:44.523Z,5.31
2019-04-06T05:30:48.204Z,5.28
2019-04-06T05:32:51.932Z,5.27
2019-04-06T05:34:58.030Z,5.25
2019-04-06T05:37:01.087Z,5.24
2019-04-06T05:39:06.448Z,5.24
2019-04-06T05:41:10.158Z,5.27
2019-04-06T05:43:13.876Z,5.31
2019-04-06T05:45:17.602Z,5.33
2019-04-06T05:47:21.462Z,5.34
2019-04-06T05:49:25.272Z,5.35
2019-04-06T05:51:28.975Z,5.37
2019-04-06T05:53:32.693Z,5.43
2019-04-06T05:55:36.416Z,5.53
2019-04-06T05:57:40.127Z,5.61
2019-04-06T05:59:43.850Z,5.69
2019-04-06T06:01:48.900Z,5.74
2019-04-06T06:03:53.129Z,5.84
2019-04-06T06:05:56.930Z,5.93
2019-04-06T06:08:00.638Z,6.06
2019-04-06T06:10:04.823Z,6.15
2019-04-06T06:12:10.410Z,6.22
2019-04-06T06:14:14.116Z,6.26
2019-04-06T06:16:17.863Z,6.33
2019-04-06T06:18:27.304Z,6.38
2019-04-06T06:20:27.029Z,6.44
2019-04-06T06:22:30.730Z,6.51
2019-04-06T06:24:34.825Z,6.58
2019-04-06T06:26:38.895Z,6.64
2019-04-06T06:28:42.793Z,6.66
2019-04-06T06:30:46.537Z,6.69
2019-04-06T06:32:50.288Z,6.75
2019-04-06T06:34:54.002Z,6.85
2019-04-06T06:36:57.801Z,6.93
2019-04-06T06:39:01.585Z,6.97
2019-04-06T06:41:05.447Z,7.02
2019-04-06T06:43:09.233Z,7.03
2019-04-06T06:45:13.087Z,7.07
2019-04-06T06:47:16.800Z,7.16
2019-04-06T06:49:20.559Z,7.26
2019-04-06T06:51:24.262Z,7.36
2019-04-06T06:53:28.137Z,7.44
2019-04-06T06:55:31.843Z,7.53
2019-04-06T06:57:35.551Z,7.66
2019-04-06T06:59:39.270Z,7.79
2019-04-06T07:01:42.991Z,8.00
2019-04-06T07:03:46.711Z,8.23
2019-04-06T07:05:50.807Z,8.48
2019-04-06T07:07:54.453Z,8.73
2019-04-06T07:10:05.186Z,9.10
2019-04-06T07:12:03.628Z,9.61
2019-04-06T07:14:07.525Z,10.15
2019-04-06T07:16:11.956Z,10.85
2019-04-06T07:18:15.678Z,12.18
2019-04-06T07:20:20.252Z,13.42
2019-04-06T07:22:23.970Z,14.52
2019-04-06T07:24:27.710Z,15.66
2019-04-06T07:26:31.594Z,16.69
2019-04-06T07:28:38.126Z,17.38
2019-04-06T07:30:40.799Z,18.04
2019-04-06T07:32:44.694Z,18.74
2019-04-06T07:34:48.411Z,19.52
2019-04-06T07:36:52.219Z,20.32
2019-04-06T07:38:56.999Z,20.93
2019-04-06T07:41:00.720Z,21.13
2019-04-06T07:43:04.453Z,21.43
2019-04-06T07:45:08.723Z,21.98
2019-04-06T07:47:12.460Z,22.62
2019-04-06T07:49:16.227Z,23.16
2019-04-06T07:51:19.968Z,23.61
2019-04-06T07:53:23.706Z,24.02
2019-04-06T07:55:27.527Z,24.39
2019-04-06T07:57:31.257Z,24.82
2019-04-06T07:59:36.262Z,25.41
2019-04-06T08:01:39.992Z,25.73
2019-04-06T08:03:43.727Z,26.08
2019-04-06T08:05:47.550Z,26.56
2019-04-06T08:07:51.304Z,27.03
2019-04-06T08:09:55.218Z,27.49
2019-04-06T08:11:59.064Z,27.78
2019-04-06T08:14:02.803Z,28.07
2019-04-06T08:16:06.685Z,28.34
2019-04-06T08:18:11.471Z,28.46
2019-04-06T08:20:16.358Z,28.67
2019-04-06T08:22:20.239Z,28.91
2019-04-06T08:24:23.917Z,29.02
2019-04-06T08:26:27.673Z,29.01
2019-04-06T08:28:31.405Z,29.26
2019-04-06T08:30:45.049Z,29.72
2019-04-06T08:32:40.846Z,30.19
2019-04-06T08:34:44.595Z,30.72
2019-04-06T08:36:48.399Z,31.00
2019-04-06T08:38:52.139Z,31.08
2019-04-06T08:40:55.924Z,31.37
2019-04-06T08:42:59.753Z,31.69
2019-04-06T08:45:03.688Z,31.77
2019-04-06T08:47:07.678Z,32.01
2019-04-06T08:49:11.463Z,32.29
2019-04-06T08:51:15.500Z,32.46
2019-04-06T08:53:19.165Z,32.52
2019-04-06T08:55:22.896Z,32.75
2019-04-06T08:57:26.650Z,33.14
2019-04-06T08:59:31.489Z,33.47
2019-04-06T09:01:35.662Z,33.65
2019-04-06T09:03:39.434Z,33.53
2019-04-06T09:05:43.395Z,33.52
2019-04-06T09:07:47.098Z,33.66
2019-04-06T09:09:50.825Z,33.66
2019-04-06T09:11:54.550Z,33.88
2019-04-06T09:13:58.279Z,34.18
2019-04-06T09:16:03.887Z,34.47
2019-04-06T09:18:07.636Z,34.89
2019-04-06T09:20:12.008Z,35.05
2019-04-06T09:22:15.789Z,34.60
2019-04-06T09:24:19.711Z,34.07
2019-04-06T09:26:23.456Z,34.03
2019-04-06T09:28:27.187Z,33.92
2019-04-06T09:30:30.919Z,33.63
2019-04-06T09:32:34.664Z,32.54
2019-04-06T09:34:38.498Z,31.33
2019-04-06T09:36:42.211Z,30.19
2019-04-06T09:38:46.177Z,29.36
2019-04-06T09:40:50.367Z,28.80
2019-04-06T09:42:54.323Z,28.30
2019-04-06T09:45:14.209Z,27.97
2019-04-06T09:47:43.064Z,27.43
2019-04-06T09:50:04.361Z,26.90
2019-04-06T09:52:17.618Z,26.90
2019-04-06T09:54:39.126Z,27.42
2019-04-06T09:56:58.860Z,27.55
2019-04-06T09:59:35.818Z,27.73
2019-04-06T10:01:42.682Z,27.65
2019-04-06T10:04:00.491Z,28.08
2019-04-06T10:06:32.561Z,28.80
2019-04-06T10:09:01.186Z,29.78
2019-04-06T10:11:24.089Z,29.86
2019-04-06T10:13:42.329Z,29.44
2019-04-06T10:15:58.318Z,29.83
2019-04-06T10:18:23.664Z,29.96
2019-04-06T10:20:51.055Z,29.61
2019-04-06T10:23:12.456Z,30.08
2019-04-06T10:25:28.763Z,29.71
2019-04-06T10:27:44.641Z,29.74
2019-04-06T10:29:56.466Z,29.48
2019-04-06T10:32:10.138Z,28.53
2019-04-06T10:34:45.239Z,27.67
2019-04-06T10:37:02.898Z,26.92
2019-04-06T10:39:18.578Z,26.07
2019-04-06T10:41:44.449Z,25.51
2019-04-06T10:44:07.512Z,24.98
2019-04-06T10:46:29.384Z,24.34
2019-04-06T10:48:50.859Z,23.97
2019-04-06T10:51:12.453Z,24.05
2019-04-06T10:53:23.451Z,24.05
2019-04-06T10:55:42.718Z,24.11
2019-04-06T10:58:03.897Z,24.02
2019-04-06T11:00:18.631Z,24.00
2019-04-06T11:02:40.209Z,23.59
2019-04-06T11:04:48.463Z,23.01
2019-04-06T11:07:05.465Z,22.76
2019-04-06T11:09:37.266Z,22.75
2019-04-06T11:11:56.194Z,23.03
2019-04-06T11:14:27.908Z,23.43
2019-04-06T11:16:56.642Z,23.08
2019-04-06T11:19:19.387Z,22.84
2019-04-06T11:21:57.134Z,23.19
2019-04-06T11:24:17.511Z,23.43
2019-04-06T11:26:41.493Z,23.74
2019-04-06T11:28:57.574Z,23.59
2019-04-06T11:31:15.667Z,23.22
2019-04-06T11:33:38.579Z,23.00
2019-04-06T11:35:58.688Z,22.77
2019-04-06T11:38:33.616Z,22.71
2019-04-06T11:41:02.338Z,22.64
2019-04-06T11:43:14.426Z,22.46
2019-04-06T11:45:35.699Z,22.32
2019-04-06T11:47:51.875Z,22.24
2019-04-06T11:50:17.747Z,22.20
2019-04-06T11:52:36.527Z,21.89
2019-04-06T11:54:51.885Z,21.76
2019-04-06T11:57:09.385Z,21.73
2019-04-06T11:59:41.507Z,21.83
2019-04-06T12:01:55.428Z,22.11
2019-04-06T12:04:20.607Z,22.09
2019-04-06T12:06:30.357Z,22.02
2019-04-06T12:08:59.201Z,21.81
2019-04-06T12:11:22.239Z,21.91
2019-04-06T12:13:45.001Z,22.06
2019-04-06T12:16:03.811Z,22.26
2019-04-06T12:18:29.824Z,22.46
2019-04-06T12:20:39.515Z,22.61
2019-04-06T12:22:51.079Z,22.73
2019-04-06T12:25:05.115Z,22.89
2019-04-06T12:27:34.198Z,23.09
2019-04-06T12:29:55.557Z,23.13
2019-04-06T12:32:18.558Z,23.21
2019-04-06T12:34:47.379Z,23.15
2019-04-06T12:37:10.119Z,23.01
2019-04-06T12:39:32.861Z,22.78
2019-04-06T12:41:52.750Z,22.77
2019-04-06T12:44:13.904Z,23.10
2019-04-06T12:46:42.655Z,23.51
2019-04-06T12:49:04.306Z,23.76
2019-04-06T12:51:34.534Z,23.82
2019-04-06T12:53:46.978Z,23.49
2019-04-06T12:56:08.096Z,23.12
2019-04-06T12:58:29.335Z,22.77
2019-04-06T13:01:01.088Z,22.47
2019-04-06T13:03:28.959Z,22.10
2019-04-06T13:05:57.748Z,21.83
2019-04-06T13:08:16.785Z,21.73
2019-04-06T13:10:36.292Z,21.70
2019-04-06T13:12:57.723Z,21.81
2019-04-06T13:15:16.693Z,21.80
2019-04-06T13:17:51.613Z,21.56
2019-04-06T13:20:10.510Z,21.39
2019-04-06T13:22:22.259Z,21.54
2019-04-06T13:24:43.996Z,21.84
2019-04-06T13:27:03.026Z,21.99
2019-04-06T13:29:31.314Z,21.98
2019-04-06T13:31:48.799Z,22.09
2019-04-06T13:34:29.505Z,22.24
2019-04-06T13:36:51.928Z,22.33
2019-04-06T13:39:26.697Z,22.55
2019-04-06T13:41:36.771Z,22.77
2019-04-06T13:43:59.798Z,22.89
2019-04-06T13:46:28.606Z,23.18
2019-04-06T13:49:00.437Z,23.28
2019-04-06T13:51:23.196Z,23.20
2019-04-06T13:53:37.826Z,23.38
2019-04-06T13:55:48.523Z,23.38
2019-04-06T13:57:59.999Z,23.11
2019-04-06T14:00:38.916Z,22.66
2019-04-06T14:02:51.284Z,22.31
2019-04-06T14:05:13.035Z,21.82
2019-04-06T14:07:32.447Z,21.53
2019-04-06T14:09:44.916Z,21.31
2019-04-06T14:12:09.941Z,21.04
2019-04-06T14:14:32.712Z,20.86
2019-04-06T14:16:58.509Z,20.81
2019-04-06T14:19:33.669Z,20.95
2019-04-06T14:22:02.182Z,21.23
2019-04-06T14:24:31.652Z,21.56
2019-04-06T14:27:03.342Z,21.49
2019-04-06T14:29:35.333Z,21.48
2019-04-06T14:31:50.646Z,21.72
2019-04-06T14:36:47.663Z,21.46
2019-04-06T14:39:13.392Z,21.37
2019-04-06T14:41:42.291Z,21.19
2019-04-06T14:44:11.287Z,20.93
2019-04-06T14:46:34.064Z,20.73
2019-04-06T14:48:55.761Z,20.64
2019-04-06T14:51:09.512Z,20.50
2019-04-06T14:53:18.216Z,20.46
2019-04-06T14:55:42.332Z,20.41
2019-04-06T14:58:11.461Z,20.47
2019-04-06T15:00:27.060Z,20.61
2019-04-06T15:02:48.519Z,20.76
2019-04-06T15:05:04.884Z,20.92
2019-04-06T15:07:26.344Z,20.95
2019-04-06T15:09:55.420Z,20.83
2019-04-06T15:12:05.928Z,20.66
2019-04-06T15:14:43.884Z,20.52
2019-04-06T15:17:03.048Z,20.36
2019-04-06T15:19:14.982Z,20.22
2019-04-06T15:21:37.686Z,20.12
2019-04-06T15:24:06.557Z,20.09
2019-04-06T15:26:29.532Z,20.10
2019-04-06T15:28:50.594Z,20.23
2019-04-06T15:31:20.135Z,20.31
2019-04-06T15:33:35.849Z,20.35
2019-04-06T15:35:57.272Z,20.43
2019-04-06T15:38:32.499Z,20.46
2019-04-06T15:41:04.117Z,20.55
2019-04-06T15:43:20.222Z,20.57
2019-04-06T15:45:31.763Z,20.52
2019-04-06T15:47:48.004Z,20.49
2019-04-06T15:50:17.040Z,20.54
2019-04-06T15:52:45.784Z,20.58
2019-04-06T15:55:02.762Z,20.58
2019-04-06T15:57:21.018Z,20.49
2019-04-06T15:59:40.878Z,20.39
2019-04-06T16:02:01.458Z,20.19
2019-04-06T16:04:21.762Z,20.07
2019-04-06T16:06:36.073Z,19.93
2019-04-06T16:09:04.851Z,19.77
2019-04-06T16:11:33.750Z,19.62
2019-04-06T16:13:45.899Z,19.47
2019-04-06T16:16:12.731Z,19.36
2019-04-06T16:18:33.981Z,19.28
2019-04-06T16:20:44.187Z,19.17
2019-04-06T16:22:55.681Z,19.11
2019-04-06T16:25:04.289Z,19.04
2019-04-06T16:27:28.678Z,18.99
2019-04-06T16:29:50.382Z,18.97
2019-04-06T16:32:19.638Z,18.96
2019-04-06T16:34:41.516Z,18.96
2019-04-06T16:37:02.896Z,18.94
2019-04-06T16:39:25.588Z,18.94
2019-04-06T16:41:47.038Z,18.92
2019-04-06T16:44:07.249Z,18.92
2019-04-06T16:46:22.135Z,18.89
2019-04-06T16:48:46.999Z,18.83
2019-04-06T16:51:06.604Z,18.83
2019-04-06T16:53:28.271Z,18.81
2019-04-06T16:55:41.808Z,18.78
2019-04-06T16:58:04.683Z,18.74
2019-04-06T17:00:19.841Z,18.68
2019-04-06T17:02:35.677Z,18.64
2019-04-06T17:05:01.151Z,18.60
2019-04-06T17:07:13.929Z,18.55
2019-04-06T17:09:26.591Z,18.50
2019-04-06T17:11:52.466Z,18.45
2019-04-06T17:14:16.257Z,18.39
2019-04-06T17:16:38.385Z,18.35
2019-04-06T17:18:54.401Z,18.32
2019-04-06T17:21:12.919Z,18.28
2019-04-06T17:23:24.531Z,18.24
2019-04-06T17:25:41.907Z,18.17
2019-04-06T17:27:57.150Z,18.11
2019-04-06T17:30:12.435Z,18.05
2019-04-06T17:32:33.944Z,17.98
2019-04-06T17:34:59.088Z,17.90
2019-04-06T17:37:11.073Z,17.84
2019-04-06T17:39:36.543Z,17.78
2019-04-06T17:42:17.934Z,17.73
2019-04-06T17:44:55.400Z,17.68
2019-04-06T17:47:18.188Z,17.60
2019-04-06T17:49:30.826Z,17.55
2019-04-06T17:51:50.010Z,17.52
2019-04-06T17:54:12.197Z,17.47
2019-04-06T17:56:35.174Z,17.40
2019-04-06T17:59:00.051Z,17.36
2019-04-06T18:01:22.941Z,17.29
2019-04-06T18:03:45.653Z,17.24
2019-04-06T18:06:08.407Z,17.19
2019-04-06T18:08:37.246Z,17.12
2019-04-06T18:11:09.985Z,17.06
2019-04-06T18:13:26.315Z,16.99
2019-04-06T18:15:30.077Z,16.93
2019-04-06T18:17:33.806Z,16.87
2019-04-06T18:19:37.623Z,16.82
2019-04-06T18:21:42.471Z,16.78
2019-04-06T18:23:46.189Z,16.77
2019-04-06T18:25:49.925Z,16.74
2019-04-06T18:27:53.661Z,16.74
2019-04-06T18:29:57.472Z,16.71
2019-04-06T18:32:13.143Z,16.70
2019-04-06T18:34:17.344Z,16.65
2019-04-06T18:36:23.499Z,16.64
2019-04-06T18:38:39.111Z,16.61
2019-04-06T18:40:42.988Z,16.57
2019-04-06T18:42:46.740Z,16.51
2019-04-06T18:44:51.982Z,16.48
2019-04-06T18:46:56.610Z,16.44
2019-04-06T18:49:00.402Z,16.40
2019-04-06T18:51:04.330Z,16.36
2019-04-06T18:53:09.147Z,16.33
2019-04-06T18:55:13.148Z,16.28
2019-04-06T18:57:17.286Z,16.24
2019-04-06T18:59:21.993Z,16.18
2019-04-06T19:01:25.874Z,16.13
2019-04-06T19:03:29.917Z,16.08
2019-04-06T19:05:33.692Z,16.01
2019-04-06T19:07:37.445Z,15.96
2019-04-06T19:09:41.195Z,15.95
2019-04-06T19:11:54.265Z,15.93
2019-04-06T19:13:50.943Z,15.95
2019-04-06T19:15:54.673Z,15.99
2019-04-06T19:17:58.844Z,16.00
2019-04-06T19:20:02.559Z,15.94
2019-04-06T19:22:06.452Z,15.86
2019-04-06T19:24:10.185Z,15.80
2019-04-06T19:26:14.050Z,15.72
2019-04-06T19:28:17.801Z,15.66
2019-04-06T19:30:21.978Z,15.59
2019-04-06T19:32:26.021Z,15.49
2019-04-06T19:34:29.891Z,15.42
2019-04-06T19:36:34.013Z,15.34
2019-04-06T19:38:38.146Z,15.27
2019-04-06T19:40:41.864Z,15.19
2019-04-06T19:42:46.411Z,15.14
2019-04-06T19:44:50.146Z,15.06
2019-04-06T19:46:53.937Z,15.02
2019-04-06T19:48:57.661Z,14.97
2019-04-06T19:51:01.380Z,14.92
2019-04-06T19:53:05.687Z,14.83
2019-04-06T19:55:10.096Z,14.76
2019-04-06T19:57:13.791Z,14.70
2019-04-06T19:59:17.512Z,14.66
2019-04-06T20:01:21.328Z,14.60
2019-04-06T20:03:34.028Z,14.55
2019-04-06T20:05:30.958Z,14.52
2019-04-06T20:07:34.774Z,14.49
2019-04-06T20:09:38.508Z,14.48
2019-04-06T20:11:42.249Z,14.43
2019-04-06T20:13:46.001Z,14.37
2019-04-06T20:15:49.798Z,14.34
2019-04-06T20:17:53.827Z,14.29
2019-04-06T20:19:57.781Z,14.22
2019-04-06T20:22:02.061Z,14.18
2019-04-06T20:24:06.164Z,14.11
2019-04-06T20:26:09.883Z,14.07
2019-04-06T20:28:13.618Z,14.03
2019-04-06T20:30:18.667Z,14.00
2019-04-06T20:32:22.447Z,14.00
2019-04-06T20:34:26.600Z,13.95
2019-04-06T20:36:30.425Z,13.93
2019-04-06T20:38:34.094Z,13.88
2019-04-06T20:40:39.202Z,13.87
2019-04-06T20:42:42.904Z,13.83
2019-04-06T20:44:47.211Z,13.80
2019-04-06T20:46:50.977Z,13.75
2019-04-06T20:48:54.693Z,13.71
2019-04-06T20:50:58.467Z,13.68
2019-04-06T20:53:02.407Z,13.63
2019-04-06T20:55:06.347Z,13.59
2019-04-06T20:57:10.041Z,13.56
2019-04-06T20:59:14.149Z,13.55
2019-04-06T21:01:18.181Z,13.57
2019-04-06T21:03:21.986Z,13.55
2019-04-06T21:05:25.795Z,13.51
2019-04-06T21:07:30.902Z,13.47
2019-04-06T21:09:35.726Z,13.43
2019-04-06T21:11:40.365Z,13.39
2019-04-06T21:13:44.150Z,13.31
2019-04-06T21:15:47.895Z,13.26
2019-04-06T21:17:51.798Z,13.23
2019-04-06T21:19:56.028Z,13.22
2019-04-06T21:21:59.883Z,13.23
2019-04-06T21:24:03.754Z,13.24
2019-04-06T21:26:07.394Z,13.27
2019-04-06T21:28:11.126Z,13.29
2019-04-06T21:30:15.918Z,13.28
2019-04-06T21:32:19.669Z,13.29
2019-04-06T21:34:23.735Z,13.28
2019-04-06T21:36:27.396Z,13.28
2019-04-06T21:38:31.134Z,13.28
2019-04-06T21:40:35.107Z,13.28
2019-04-06T21:42:39.366Z,13.26
2019-04-06T21:44:43.471Z,13.25
2019-04-06T21:46:47.283Z,13.25
2019-04-06T21:48:51.038Z,13.23
2019-04-06T21:50:54.913Z,13.21
2019-04-06T21:52:58.600Z,13.19
2019-04-06T21:55:02.442Z,13.17
2019-04-06T21:57:06.292Z,13.14
2019-04-06T21:59:10.033Z,13.11
2019-04-06T22:01:16.314Z,13.07
2019-04-06T22:03:20.648Z,13.01
2019-04-06T22:05:25.116Z,12.95
2019-04-06T22:07:28.890Z,12.87
2019-04-06T22:09:32.621Z,12.76
2019-04-06T22:11:37.102Z,12.71
2019-04-06T22:13:40.915Z,12.71
2019-04-06T22:15:45.060Z,12.73
2019-04-06T22:17:48.821Z,12.73
2019-04-06T22:19:52.691Z,12.73
2019-04-06T22:21:56.385Z,12.75
2019-04-06T22:24:01.252Z,12.73
2019-04-06T22:26:05.177Z,12.71
2019-04-06T22:28:08.887Z,12.71
2019-04-06T22:30:12.723Z,12.69
2019-04-06T22:32:16.513Z,12.68
2019-04-06T22:34:20.208Z,12.65
2019-04-06T22:36:24.323Z,12.62
2019-04-06T22:38:28.167Z,12.58
2019-04-06T22:40:32.485Z,12.55
2019-04-06T22:42:36.586Z,12.50
2019-04-06T22:44:40.343Z,12.43
2019-04-06T22:46:44.076Z,12.37
2019-04-06T22:48:48.069Z,12.27
2019-04-06T22:50:52.401Z,12.21
2019-04-06T22:52:56.193Z,12.17
2019-04-06T22:55:00.382Z,12.13
2019-04-06T22:57:04.369Z,12.10
2019-04-06T22:59:08.518Z,12.09
2019-04-06T23:01:13.977Z,12.07
2019-04-06T23:03:29.148Z,12.05
2019-04-06T23:05:38.050Z,12.05
2019-04-06T23:07:41.764Z,12.03
2019-04-06T23:09:46.563Z,12.04
2019-04-06T23:11:50.469Z,12.05
2019-04-06T23:13:54.145Z,12.04
2019-04-06T23:15:57.841Z,12.01
2019-04-06T23:18:01.557Z,11.98
2019-04-06T23:20:05.702Z,11.95
2019-04-06T23:22:09.409Z,11.91
2019-04-06T23:24:13.590Z,11.88
2019-04-06T23:26:17.319Z,11.84
2019-04-06T23:28:21.692Z,11.82
2019-04-06T23:30:26.442Z,11.79
2019-04-06T23:32:30.581Z,11.74
2019-04-06T23:34:35.166Z,11.70
2019-04-06T23:36:38.878Z,11.68
2019-04-06T23:38:43.046Z,11.64
2019-04-06T23:40:47.156Z,11.63
2019-04-06T23:42:51.292Z,11.61
2019-04-06T23:44:55.191Z,11.59
2019-04-06T23:46:58.910Z,11.54
2019-04-06T23:49:02.826Z,11.48
2019-04-06T23:51:06.529Z,11.39
2019-04-06T23:53:10.277Z,11.32
2019-04-06T23:55:14.128Z,11.24
2019-04-06T23:57:17.856Z,11.17
2019-04-06T23:59:22.223Z,11.12
